createdAt,value
2018-10-21T00:02:27.351Z,97652.66
2018-10-21T00:04:57.191Z,97644.66
2018-10-21T00:07:26.361Z,97647.20
2018-10-21T00:09:56.935Z,97653.17
2018-10-21T00:12:26.754Z,97653.83
2018-10-21T00:14:58.139Z,97646.93
2018-10-21T00:17:26.605Z,97649.07
2018-10-21T00:19:56.844Z,97654.22
2018-10-21T00:22:26.519Z,97651.31
2018-10-21T00:24:56.337Z,97655.82
2018-10-21T00:27:24.895Z,97658.36
2018-10-21T00:29:55.560Z,97650.38
2018-10-21T00:33:00.041Z,97656.52
2018-10-21T00:35:30.049Z,97660.01
2018-10-21T00:38:01.121Z,97663.05
2018-10-21T00:40:30.444Z,97657.70
2018-10-21T00:42:59.258Z,97646.16
2018-10-21T00:45:32.335Z,97642.95
2018-10-21T00:48:01.895Z,97680.56
2018-10-21T00:50:30.747Z,97631.73
2018-10-21T00:53:00.085Z,97628.21
2018-10-21T00:55:29.249Z,97623.97
2018-10-21T00:57:58.727Z,97632.48
2018-10-21T01:00:43.220Z,97628.70
2018-10-21T01:03:12.348Z,97625.34
2018-10-21T01:05:42.104Z,97629.85
2018-10-21T01:08:15.331Z,97631.36
2018-10-21T01:10:44.726Z,97628.21
2018-10-21T01:13:13.931Z,97631.78
2018-10-21T01:15:44.276Z,97632.32
2018-10-21T01:18:13.392Z,97628.94
2018-10-21T01:20:43.337Z,97621.15
2018-10-21T01:23:15.835Z,97626.55
2018-10-21T01:25:44.567Z,97623.27
2018-10-21T01:28:14.603Z,97620.91
2018-10-21T01:30:44.653Z,97630.03
2018-10-21T01:33:16.212Z,97617.66
2018-10-21T01:35:45.503Z,97617.45
2018-10-21T01:38:16.125Z,97619.08
2018-10-21T01:40:50.315Z,97605.28
2018-10-21T01:43:20.504Z,97602.98
2018-10-21T01:45:49.019Z,97599.31
2018-10-21T01:48:19.143Z,97607.70
2018-10-21T01:50:49.199Z,97607.87
2018-10-21T01:53:19.184Z,97606.74
2018-10-21T01:55:48.037Z,97608.00
2018-10-21T01:58:16.888Z,97604.12
2018-10-21T02:00:45.968Z,97599.69
2018-10-21T02:03:15.242Z,97594.75
2018-10-21T02:05:44.550Z,97595.09
2018-10-21T02:08:13.961Z,97592.45
2018-10-21T02:10:44.619Z,97581.52
2018-10-21T02:13:13.993Z,97584.83
2018-10-21T02:15:42.535Z,97579.38
2018-10-21T02:18:11.204Z,97580.33
2018-10-21T02:20:44.887Z,97570.08
2018-10-21T02:23:14.884Z,97572.95
2018-10-21T02:25:45.014Z,97577.21
2018-10-21T02:28:14.399Z,97576.16
2018-10-21T02:30:43.504Z,97574.12
2018-10-21T02:33:13.805Z,97581.14
2018-10-21T02:35:44.058Z,97575.95
2018-10-21T02:38:15.660Z,97568.66
2018-10-21T02:41:21.053Z,97213.83
2018-10-21T02:43:49.696Z,97573.39
2018-10-21T02:46:18.448Z,97572.30
2018-10-21T02:48:48.100Z,97573.80
2018-10-21T02:51:17.100Z,97566.65
2018-10-21T02:53:46.617Z,97567.57
2018-10-21T02:56:15.148Z,97565.09
2018-10-21T02:58:46.159Z,97564.11
2018-10-21T03:01:15.460Z,97569.34
2018-10-21T03:03:45.372Z,97569.97
2018-10-21T03:06:14.801Z,97571.97
2018-10-21T03:08:44.309Z,97575.41
2018-10-21T03:11:13.859Z,97580.19
2018-10-21T03:13:43.488Z,97577.72
2018-10-21T03:16:13.250Z,97580.17
2018-10-21T03:18:42.992Z,97579.04
2018-10-21T03:21:12.414Z,97572.70
2018-10-21T03:23:42.687Z,97574.47
2018-10-21T03:26:12.780Z,97576.95
2018-10-21T03:28:41.313Z,97584.27
2018-10-21T03:31:13.454Z,97589.05
2018-10-21T03:33:46.245Z,97594.19
2018-10-21T03:36:14.793Z,97603.56
2018-10-21T03:38:44.560Z,97601.34
2018-10-21T03:41:14.148Z,97595.77
2018-10-21T03:43:44.224Z,97600.81
2018-10-21T03:46:15.377Z,97599.80
2018-10-21T03:48:44.991Z,97590.84
2018-10-21T03:51:15.857Z,97603.28
2018-10-21T03:53:45.568Z,97606.09
2018-10-21T03:56:14.623Z,97609.55
2018-10-21T03:58:44.617Z,97608.24
2018-10-21T04:01:14.115Z,97607.31
2018-10-21T04:03:46.893Z,97613.45
2018-10-21T04:06:16.275Z,97612.23
2018-10-21T04:08:46.911Z,97610.45
2018-10-21T04:11:17.004Z,97607.48
2018-10-21T04:13:46.387Z,97605.42
2018-10-21T04:16:15.792Z,97608.30
2018-10-21T04:18:45.066Z,97598.80
2018-10-21T04:21:13.604Z,97602.76
2018-10-21T04:23:43.111Z,97604.47
2018-10-21T04:26:13.373Z,97603.83
2018-10-21T04:28:43.382Z,97596.54
2018-10-21T04:31:14.470Z,97601.64
2018-10-21T04:33:46.688Z,97597.47
2018-10-21T04:36:19.997Z,97598.09
2018-10-21T04:40:03.267Z,97591.39
2018-10-21T04:42:32.361Z,97594.05
2018-10-21T04:45:04.833Z,97592.80
2018-10-21T04:47:34.400Z,97593.68
2018-10-21T04:50:03.407Z,97501.75
2018-10-21T04:52:34.310Z,97439.05
2018-10-21T04:55:07.411Z,97593.52
2018-10-21T04:57:39.047Z,97592.80
2018-10-21T05:00:12.660Z,97595.59
2018-10-21T05:02:42.695Z,97593.97
2018-10-21T05:05:13.028Z,97596.25
2018-10-21T05:07:42.958Z,97597.70
2018-10-21T05:10:28.518Z,97589.38
2018-10-21T05:13:00.017Z,97592.69
2018-10-21T05:15:31.664Z,97586.48
2018-10-21T05:18:01.222Z,97586.15
2018-10-21T05:20:30.323Z,97580.01
2018-10-21T05:22:59.885Z,97577.36
2018-10-21T05:25:28.748Z,97573.40
2018-10-21T05:27:58.830Z,97563.27
2018-10-21T05:30:29.369Z,97561.92
2018-10-21T05:32:58.027Z,97560.50
2018-10-21T05:35:28.075Z,97554.01
2018-10-21T05:38:11.769Z,97295.69
2018-10-21T05:40:41.190Z,97560.16
2018-10-21T05:43:10.307Z,97560.61
2018-10-21T05:45:40.666Z,97564.45
2018-10-21T05:48:11.375Z,97564.55
2018-10-21T05:50:40.515Z,97565.09
2018-10-21T05:53:10.995Z,97568.12
2018-10-21T06:02:26.649Z,97610.80
2018-10-21T06:04:56.252Z,97570.43
2018-10-21T06:07:24.807Z,97577.57
2018-10-21T06:09:54.569Z,97574.69
2018-10-21T06:12:26.393Z,97574.52
2018-10-21T06:14:55.448Z,97570.95
2018-10-21T06:17:30.555Z,97577.13
2018-10-21T06:20:07.599Z,97582.98
2018-10-21T06:22:40.057Z,97582.89
2018-10-21T06:25:10.032Z,97584.06
2018-10-21T06:27:41.065Z,97586.48
2018-10-21T06:30:11.784Z,97589.49
2018-10-21T06:32:41.873Z,97598.50
2018-10-21T06:35:12.408Z,97599.52
2018-10-21T06:37:41.501Z,97604.02
2018-10-21T06:40:11.696Z,97561.63
2018-10-21T06:42:40.673Z,97613.02
2018-10-21T06:45:10.939Z,97617.33
2018-10-21T06:47:40.769Z,97615.91
2018-10-21T06:50:15.561Z,97617.48
2018-10-21T06:52:45.888Z,97623.41
2018-10-21T06:55:15.404Z,97623.23
2018-10-21T06:57:51.667Z,97546.59
2018-10-21T07:00:23.498Z,97629.16
2018-10-21T07:02:54.968Z,97621.45
2018-10-21T07:05:34.982Z,97627.86
2018-10-21T07:08:05.710Z,97632.15
2018-10-21T07:10:40.789Z,97637.92
2018-10-21T07:13:11.108Z,97642.16
2018-10-21T07:15:42.460Z,97637.37
2018-10-21T07:18:11.823Z,97635.31
2018-10-21T07:20:40.989Z,97635.91
2018-10-21T07:23:10.157Z,97631.54
2018-10-21T07:25:41.136Z,97631.34
2018-10-21T07:28:11.075Z,97632.49
2018-10-21T07:30:45.080Z,97633.66
2018-10-21T07:33:13.609Z,97551.59
2018-10-21T07:35:43.572Z,97640.31
2018-10-21T07:38:13.044Z,97636.83
2018-10-21T07:40:42.409Z,97636.64
2018-10-21T07:43:11.121Z,97634.83
2018-10-21T07:45:39.931Z,97628.22
2018-10-21T07:48:08.709Z,97638.08
2018-10-21T07:50:38.763Z,97632.69
2018-10-21T07:53:08.863Z,97628.24
2018-10-21T07:55:39.512Z,97633.61
2018-10-21T07:58:08.020Z,97633.47
2018-10-21T08:00:37.536Z,97634.94
2018-10-21T08:03:07.582Z,97626.42
2018-10-21T08:05:49.076Z,97628.13
2018-10-21T08:08:21.192Z,97628.00
2018-10-21T08:10:51.260Z,97625.17
2018-10-21T08:13:22.917Z,97620.08
2018-10-21T08:15:52.526Z,97623.86
2018-10-21T08:18:21.100Z,97623.08
2018-10-21T08:20:52.488Z,97622.03
2018-10-21T08:23:22.115Z,97627.17
2018-10-21T08:25:51.320Z,97633.44
2018-10-21T08:28:20.727Z,97629.98
2018-10-21T08:30:49.861Z,97629.31
2018-10-21T08:33:18.827Z,97636.37
2018-10-21T08:35:47.424Z,97640.64
2018-10-21T08:38:16.226Z,97641.56
2018-10-21T08:40:45.024Z,97649.06
2018-10-21T08:43:14.667Z,97647.06
2018-10-21T08:45:44.354Z,97638.66
2018-10-21T08:48:14.702Z,97637.13
2018-10-21T08:50:43.556Z,97642.68
2018-10-21T08:53:13.652Z,97641.19
2018-10-21T08:55:42.413Z,97637.95
2018-10-21T08:58:13.481Z,97550.67
2018-10-21T09:00:42.632Z,97631.73
2018-10-21T09:03:12.831Z,97627.64
2018-10-21T09:05:41.759Z,97623.41
2018-10-21T09:08:11.291Z,97625.17
2018-10-21T09:10:42.076Z,97626.17
2018-10-21T09:13:12.405Z,97617.67
2018-10-21T09:15:41.307Z,97627.18
2018-10-21T09:18:11.196Z,97625.24
2018-10-21T09:20:40.740Z,97620.21
2018-10-21T09:23:11.145Z,97621.63
2018-10-21T09:25:39.679Z,97621.95
2018-10-21T09:28:08.852Z,97626.38
2018-10-21T09:30:38.784Z,97631.94
2018-10-21T09:33:07.614Z,97630.68
2018-10-21T09:35:36.873Z,97627.20
2018-10-21T09:38:06.060Z,97630.37
2018-10-21T09:40:35.447Z,97625.92
2018-10-21T09:43:05.100Z,97622.02
2018-10-21T09:45:33.864Z,97625.18
2018-10-21T09:48:03.648Z,97618.31
2018-10-21T09:50:33.061Z,97617.36
2018-10-21T09:53:02.737Z,97623.50
2018-10-21T09:55:31.666Z,97616.98
2018-10-21T09:58:00.543Z,97621.28
2018-10-21T10:00:35.586Z,97616.91
2018-10-21T10:03:07.243Z,97616.09
2018-10-21T10:05:36.641Z,97609.73
2018-10-21T10:08:05.659Z,97611.19
2018-10-21T10:10:34.215Z,97613.28
2018-10-21T10:13:03.810Z,97604.80
2018-10-21T10:15:32.612Z,97607.97
2018-10-21T10:18:01.366Z,97604.84
2018-10-21T10:20:31.746Z,97603.88
2018-10-21T10:23:02.604Z,97605.86
2018-10-21T10:25:32.688Z,97596.00
2018-10-21T10:28:02.342Z,97582.52
2018-10-21T10:30:32.262Z,97583.53
2018-10-21T10:33:00.779Z,97580.80
2018-10-21T10:35:30.739Z,97575.06
2018-10-21T10:38:00.875Z,97567.50
2018-10-21T10:40:31.100Z,97572.58
2018-10-21T10:42:59.666Z,97569.63
2018-10-21T10:45:30.003Z,97562.34
2018-10-21T10:47:59.294Z,97559.75
2018-10-21T10:50:27.857Z,97564.77
2018-10-21T10:52:57.359Z,97570.36
2018-10-21T10:55:31.045Z,97563.77
2018-10-21T10:58:02.011Z,97561.42
2018-10-21T11:00:31.675Z,97552.36
2018-10-21T11:03:01.508Z,97547.88
2018-10-21T11:05:31.529Z,97545.38
2018-10-21T11:08:00.853Z,97545.48
2018-10-21T11:10:30.545Z,97540.98
2018-10-21T11:13:00.700Z,97574.52
2018-10-21T11:15:30.345Z,97540.52
2018-10-21T11:17:59.473Z,97536.91
2018-10-21T11:20:30.492Z,97543.42
2018-10-21T11:22:59.030Z,97538.19
2018-10-21T11:25:29.811Z,97542.15
2018-10-21T11:27:59.697Z,97546.77
2018-10-21T11:30:30.357Z,97537.12
2018-10-21T11:33:00.248Z,97536.11
2018-10-21T11:35:30.963Z,97532.63
2018-10-21T11:37:59.866Z,97531.28
2018-10-21T11:40:29.742Z,97528.07
2018-10-21T11:43:00.094Z,97528.19
2018-10-21T11:45:29.608Z,97520.18
2018-10-21T11:48:00.384Z,97525.82
2018-10-21T11:50:30.653Z,97519.41
2018-10-21T11:53:03.057Z,97516.22
2018-10-21T11:55:38.590Z,97518.61
2018-10-21T11:58:10.454Z,97521.05
2018-10-21T12:00:39.517Z,97510.59
2018-10-21T12:03:08.984Z,97510.59
2018-10-21T12:05:38.724Z,97500.69
2018-10-21T12:08:07.760Z,97499.41
2018-10-21T12:10:37.398Z,97504.47
2018-10-21T12:13:07.252Z,97493.52
2018-10-21T12:15:37.327Z,97502.31
2018-10-21T12:18:06.891Z,97504.75
2018-10-21T12:20:37.107Z,97503.34
2018-10-21T12:23:07.695Z,97497.14
2018-10-21T12:25:36.808Z,97498.14
2018-10-21T12:28:05.826Z,97496.59
2018-10-21T12:30:36.210Z,97501.64
2018-10-21T12:33:06.049Z,97492.36
2018-10-21T12:35:36.450Z,97490.42
2018-10-21T12:38:06.087Z,97485.14
2018-10-21T12:40:35.456Z,97477.89
2018-10-21T12:43:04.611Z,97478.44
2018-10-21T12:45:35.330Z,97473.91
2018-10-21T12:48:04.627Z,97465.81
2018-10-21T12:50:33.178Z,97469.03
2018-10-21T12:53:02.453Z,97470.32
2018-10-21T12:55:32.892Z,97465.73
2018-10-21T12:58:02.625Z,97466.09
2018-10-21T13:00:31.992Z,97458.16
2018-10-21T13:03:00.599Z,97462.18
2018-10-21T13:05:30.125Z,97462.77
2018-10-21T13:07:59.822Z,97455.39
2018-10-21T13:10:29.663Z,97445.80
2018-10-21T13:12:59.065Z,97449.48
2018-10-21T13:15:29.159Z,97449.58
2018-10-21T13:17:59.478Z,97453.11
2018-10-21T13:20:29.067Z,97458.05
2018-10-21T13:22:57.577Z,97446.34
2018-10-21T13:25:26.651Z,97456.64
2018-10-21T13:28:10.696Z,97446.38
2018-10-21T13:30:40.051Z,97448.27
2018-10-21T13:33:09.268Z,97436.27
2018-10-21T13:35:39.911Z,97441.59
2018-10-21T13:38:11.317Z,97437.32
2018-10-21T13:40:40.385Z,97438.37
2018-10-21T13:43:11.668Z,97436.77
2018-10-21T13:45:42.156Z,97433.25
2018-10-21T13:48:11.641Z,97428.44
2018-10-21T13:50:40.786Z,97427.33
2018-10-21T13:53:10.385Z,97427.47
2018-10-21T13:55:39.975Z,97429.61
2018-10-21T13:58:09.452Z,97426.81
2018-10-21T14:00:39.198Z,97421.33
2018-10-21T14:03:07.956Z,97426.63
2018-10-21T14:05:37.099Z,97426.39
2018-10-21T14:08:07.114Z,97424.50
2018-10-21T14:10:36.451Z,97415.74
2018-10-21T14:13:06.407Z,97419.48
2018-10-21T14:15:36.827Z,97414.88
2018-10-21T14:18:07.953Z,97407.77
2018-10-21T14:20:36.948Z,97408.16
2018-10-21T14:23:05.981Z,97406.63
2018-10-21T14:25:34.599Z,97412.76
2018-10-21T14:28:04.866Z,97406.27
2018-10-21T14:30:35.728Z,97402.41
2018-10-21T14:33:05.748Z,97403.37
2018-10-21T14:35:34.964Z,97399.48
2018-10-21T14:38:19.008Z,97401.38
2018-10-21T14:40:47.855Z,97401.94
2018-10-21T14:43:18.592Z,97399.41
2018-10-21T14:45:47.292Z,97393.86
2018-10-21T14:48:16.677Z,97388.08
2018-10-21T14:50:45.135Z,97390.11
2018-10-21T14:53:14.840Z,97390.70
2018-10-21T14:55:47.644Z,97382.81
2018-10-21T14:58:18.463Z,97381.71
2018-10-21T15:00:47.995Z,97376.48
2018-10-21T15:03:18.005Z,97309.84
2018-10-21T15:05:46.521Z,97381.25
2018-10-21T15:08:16.157Z,97379.29
2018-10-21T15:10:47.240Z,97379.71
2018-10-21T15:13:15.749Z,97382.80
2018-10-21T15:15:45.299Z,97382.22
2018-10-21T15:18:14.139Z,97375.13
2018-10-21T15:20:42.860Z,97373.66
2018-10-21T15:23:13.564Z,97372.80
2018-10-21T15:25:43.093Z,97372.94
2018-10-21T15:28:13.302Z,97377.69
2018-10-21T15:30:42.405Z,97374.67
2018-10-21T15:33:13.207Z,97378.27
2018-10-21T15:35:42.841Z,97373.78
2018-10-21T15:38:11.888Z,97380.34
2018-10-21T15:40:41.340Z,97376.92
2018-10-21T15:43:10.412Z,97373.92
2018-10-21T15:45:39.955Z,97367.49
2018-10-21T15:48:10.059Z,97364.55
2018-10-21T15:50:40.293Z,97368.35
2018-10-21T15:53:11.258Z,97371.61
2018-10-21T15:55:44.999Z,97366.11
2018-10-21T15:58:15.009Z,97366.62
2018-10-21T16:00:44.876Z,96756.94
2018-10-21T16:03:14.456Z,97369.94
2018-10-21T16:05:44.035Z,97369.51
2018-10-21T16:08:14.076Z,97372.03
2018-10-21T16:10:44.090Z,97375.55
2018-10-21T16:13:13.674Z,97370.41
2018-10-21T16:15:44.303Z,97371.66
2018-10-21T16:18:15.846Z,97371.05
2018-10-21T16:20:45.235Z,97379.48
2018-10-21T16:23:15.978Z,97376.12
2018-10-21T16:25:45.548Z,97374.16
2018-10-21T16:28:15.045Z,97380.15
2018-10-21T16:30:44.188Z,97384.14
2018-10-21T16:33:13.885Z,97378.55
2018-10-21T16:35:43.445Z,97380.97
2018-10-21T16:38:12.023Z,97375.95
2018-10-21T16:40:41.437Z,97377.20
2018-10-21T16:43:10.472Z,97380.59
2018-10-21T16:45:39.504Z,97385.27
2018-10-21T16:48:08.105Z,97385.30
2018-10-21T16:50:37.896Z,97386.66
2018-10-21T16:53:07.903Z,97390.72
2018-10-21T16:55:37.012Z,97391.03
2018-10-21T16:58:06.251Z,97388.93
2018-10-21T17:00:35.655Z,97392.14
2018-10-21T17:03:05.451Z,97198.34
2018-10-21T17:05:35.000Z,97392.94
2018-10-21T17:08:04.607Z,97395.08
2018-10-21T17:10:36.415Z,97401.98
2018-10-21T17:13:05.272Z,97402.81
2018-10-21T17:15:34.972Z,97400.66
2018-10-21T17:18:04.719Z,97399.31
2018-10-21T17:20:34.116Z,97398.78
2018-10-21T17:23:03.252Z,97399.31
2018-10-21T17:25:33.075Z,97407.56
2018-10-21T17:28:03.077Z,97407.30
2018-10-21T17:30:32.462Z,97404.88
2018-10-21T17:33:02.604Z,97398.72
2018-10-21T17:35:31.371Z,97405.16
2018-10-21T17:38:02.192Z,97405.30
2018-10-21T17:40:33.489Z,97412.96
2018-10-21T17:43:02.571Z,97405.83
2018-10-21T17:45:33.298Z,97403.20
2018-10-21T17:48:03.171Z,97410.51
2018-10-21T17:50:33.823Z,97400.92
2018-10-21T17:53:03.446Z,97408.77
2018-10-21T17:55:32.856Z,97658.75
2018-10-21T17:58:02.986Z,97406.33
2018-10-21T18:00:32.526Z,97408.25
2018-10-21T18:03:01.758Z,97412.08
2018-10-21T18:05:31.896Z,97411.79
2018-10-21T18:08:00.554Z,97412.28
2018-10-21T18:10:30.298Z,97409.59
2018-10-21T18:13:00.267Z,97416.25
2018-10-21T18:15:30.688Z,97416.55
2018-10-21T18:17:59.200Z,97410.39
2018-10-21T18:20:30.385Z,97410.09
2018-10-21T18:23:02.106Z,97468.14
2018-10-21T18:25:31.687Z,97413.95
2018-10-21T18:28:01.284Z,97413.70
2018-10-21T18:30:30.671Z,97415.14
2018-10-21T18:32:59.779Z,97416.04
2018-10-21T18:35:28.878Z,97419.44
2018-10-21T18:37:57.896Z,97419.36
2018-10-21T18:40:26.483Z,97418.17
2018-10-21T18:42:57.439Z,97418.89
2018-10-21T18:45:27.035Z,97421.64
2018-10-21T18:47:56.886Z,97423.52
2018-10-21T18:50:26.561Z,97418.33
2018-10-21T18:52:55.583Z,97413.37
2018-10-21T18:55:24.136Z,97408.17
2018-10-21T18:57:54.402Z,97409.94
2018-10-21T19:00:23.416Z,97410.34
2018-10-21T19:04:21.930Z,97409.31
2018-10-21T19:06:53.317Z,97404.95
2018-10-21T19:09:22.752Z,97411.53
2018-10-21T19:14:38.361Z,97411.41
2018-10-21T19:17:07.408Z,97414.27
2018-10-21T19:19:36.677Z,97420.55
2018-10-21T19:22:09.371Z,97419.22
2018-10-21T19:24:39.061Z,97416.69
2018-10-21T19:27:09.102Z,97418.00
2018-10-21T19:29:38.136Z,97417.89
2018-10-21T19:32:07.016Z,97415.39
2018-10-21T19:34:37.182Z,97417.95
2018-10-21T19:37:08.164Z,97419.67
2018-10-21T19:39:37.880Z,97421.20
2018-10-21T19:42:07.560Z,97418.00
2018-10-21T19:44:37.987Z,97420.39
2018-10-21T19:47:08.596Z,97414.25
2018-10-21T19:49:39.515Z,97416.88
2018-10-21T19:52:08.844Z,97415.92
2018-10-21T19:54:37.737Z,97417.36
2018-10-21T19:57:07.561Z,97416.52
2018-10-21T19:59:37.724Z,97418.23
2018-10-21T20:02:07.290Z,97423.09
2018-10-21T20:04:36.770Z,97428.20
2018-10-21T20:07:06.944Z,97426.03
2018-10-21T20:09:37.501Z,97426.09
2018-10-21T20:12:07.327Z,97423.35
2018-10-21T20:14:37.210Z,97424.16
2018-10-21T20:17:07.794Z,97423.23
2018-10-21T20:19:37.718Z,97428.91
2018-10-21T20:22:11.316Z,97436.45
2018-10-21T20:24:41.644Z,97434.31
2018-10-21T20:27:11.116Z,97433.23
2018-10-21T20:29:41.388Z,97435.95
2018-10-21T20:34:46.198Z,97434.72
2018-10-21T20:37:15.675Z,97435.38
2018-10-21T20:39:45.236Z,97440.40
2018-10-21T20:42:17.322Z,97434.38
2018-10-21T20:44:45.783Z,97438.81
2018-10-21T20:47:18.992Z,97439.08
2018-10-21T20:49:48.525Z,97439.61
2018-10-21T20:52:19.572Z,97440.37
2018-10-21T20:54:50.025Z,97442.98
2018-10-21T20:57:20.724Z,97451.90
2018-10-21T20:59:52.142Z,97442.52
2018-10-21T21:02:22.191Z,97446.52
2018-10-21T21:04:52.265Z,97489.77
2018-10-21T21:07:23.373Z,97446.09
2018-10-21T21:09:53.535Z,97447.02
2018-10-21T21:12:22.676Z,97450.58
2018-10-21T21:14:53.527Z,97450.30
2018-10-21T21:17:23.855Z,97452.42
2018-10-21T21:19:53.935Z,97456.56
2018-10-21T21:22:24.342Z,97459.05
2018-10-21T21:24:54.034Z,97453.36
2018-10-21T21:27:23.637Z,97457.27
2018-10-21T21:29:54.564Z,97455.01
2018-10-21T21:32:24.033Z,97458.11
2018-10-21T21:34:55.255Z,97457.52
2018-10-21T21:37:25.691Z,97454.27
2018-10-21T21:39:56.804Z,97460.16
2018-10-21T21:42:26.301Z,97456.65
2018-10-21T21:44:55.455Z,97455.94
2018-10-21T21:47:24.476Z,97451.47
2018-10-21T21:49:53.608Z,97448.13
2018-10-21T21:52:23.592Z,97444.80
2018-10-21T21:54:52.743Z,97442.86
2018-10-21T21:57:21.776Z,97441.78
2018-10-21T21:59:51.249Z,97442.94
2018-10-21T22:02:21.208Z,97440.48
2018-10-21T22:04:50.279Z,97440.82
2018-10-21T22:07:19.468Z,97437.84
2018-10-21T22:09:49.857Z,97441.06
2018-10-21T22:12:21.055Z,97442.20
2018-10-21T22:14:51.505Z,97438.72
2018-10-21T22:17:20.053Z,97442.03
2018-10-21T22:19:50.100Z,97437.39
2018-10-21T22:22:19.912Z,97430.97
2018-10-21T22:24:49.428Z,97428.41
2018-10-21T22:27:19.334Z,97426.42
2018-10-21T22:29:47.872Z,97427.33
2018-10-21T22:32:16.663Z,97431.67
2018-10-21T22:34:45.485Z,97426.39
2018-10-21T22:37:15.095Z,97424.50
2018-10-21T22:39:44.052Z,97425.78
2018-10-21T22:42:12.954Z,97426.20
2018-10-21T22:44:44.084Z,97426.02
2018-10-21T22:47:13.316Z,97421.45
2018-10-21T22:49:42.438Z,97425.50
2018-10-21T22:52:11.554Z,97424.48
2018-10-21T22:54:40.231Z,97423.47
2018-10-21T22:57:14.064Z,97429.60
2018-10-21T22:59:43.405Z,97426.52
2018-10-21T23:02:13.817Z,97424.00
2018-10-21T23:04:45.231Z,97424.47
2018-10-21T23:07:14.902Z,97420.67
2018-10-21T23:09:44.427Z,97424.89
2018-10-21T23:12:14.215Z,97418.02
2018-10-21T23:14:44.219Z,97423.06
2018-10-21T23:17:14.612Z,97424.01
2018-10-21T23:19:48.799Z,97427.86
2018-10-21T23:22:18.430Z,97425.41
2018-10-21T23:24:48.499Z,97422.63
2018-10-21T23:27:17.729Z,97419.14
2018-10-21T23:29:47.870Z,97418.90
2018-10-21T23:32:16.951Z,97419.47
2018-10-21T23:34:46.217Z,97427.19
2018-10-21T23:37:15.115Z,97426.73
2018-10-21T23:39:44.178Z,97426.88
2018-10-21T23:42:14.715Z,97424.94
2018-10-21T23:44:43.195Z,97417.24
2018-10-21T23:47:12.747Z,97412.19
2018-10-21T23:49:41.995Z,97411.55
2018-10-21T23:52:12.624Z,97413.96
2018-10-21T23:54:42.446Z,97407.66
2018-10-21T23:57:11.763Z,97398.75
2018-10-21T23:59:40.660Z,97402.02
